sensor_id;sensor_type;location;lat;lon;timestamp;pressure;altitude;pressure_sealevel;temperature;humidity
77737;BME280;66903;59.926;30.404;2024-02-14T00:04:32;102318.47;;;21.14;23.61
77737;BME280;66903;59.926;30.404;2024-02-14T00:09:43;102315.78;;;21.19;23.59
77737;BME280;66903;59.926;30.404;2024-02-14T00:14:54;102313.78;;;21.19;23.66
77737;BME280;66903;59.926;30.404;2024-02-14T00:20:05;102312.94;;;21.19;23.44
77737;BME280;66903;59.926;30.404;2024-02-14T00:25:31;102316.00;;;21.17;23.42
77737;BME280;66903;59.926;30.404;2024-02-14T00:30:44;102316.88;;;21.18;23.38
77737;BME280;66903;59.926;30.404;2024-02-14T00:36:15;102311.44;;;21.16;23.28
77737;BME280;66903;59.926;30.404;2024-02-14T00:41:26;102297.72;;;21.13;23.25
77737;BME280;66903;59.926;30.404;2024-02-14T00:46:40;102302.78;;;21.11;23.29
77737;BME280;66903;59.926;30.404;2024-02-14T00:51:50;102295.63;;;21.09;23.35
77737;BME280;66903;59.926;30.404;2024-02-14T00:57:01;102300.09;;;21.05;23.33
77737;BME280;66903;59.926;30.404;2024-02-14T01:02:12;102305.78;;;21.05;23.53
77737;BME280;66903;59.926;30.404;2024-02-14T01:07:23;102289.44;;;21.00;23.30
77737;BME280;66903;59.926;30.404;2024-02-14T01:12:33;102304.28;;;21.02;23.34
77737;BME280;66903;59.926;30.404;2024-02-14T01:17:44;102302.56;;;21.01;23.18
77737;BME280;66903;59.926;30.404;2024-02-14T01:22:57;102307.22;;;20.96;23.17
77737;BME280;66903;59.926;30.404;2024-02-14T01:28:15;102302.38;;;20.96;23.19
77737;BME280;66903;59.926;30.404;2024-02-14T01:33:25;102303.50;;;20.95;23.03
77737;BME280;66903;59.926;30.404;2024-02-14T01:38:36;102305.72;;;20.93;23.13
77737;BME280;66903;59.926;30.404;2024-02-14T01:43:49;102318.47;;;20.90;22.99
77737;BME280;66903;59.926;30.404;2024-02-14T01:48:59;102300.53;;;20.90;23.04
77737;BME280;66903;59.926;30.404;2024-02-14T01:54:12;102297.81;;;20.95;23.02
77737;BME280;66903;59.926;30.404;2024-02-14T01:59:23;102305.47;;;20.94;23.04
77737;BME280;66903;59.926;30.404;2024-02-14T02:04:35;102309.69;;;20.92;23.02
77737;BME280;66903;59.926;30.404;2024-02-14T02:09:46;102302.63;;;20.94;22.96
77737;BME280;66903;59.926;30.404;2024-02-14T02:14:57;102302.63;;;20.94;23.01
77737;BME280;66903;59.926;30.404;2024-02-14T02:20:28;102294.34;;;20.93;23.10
77737;BME280;66903;59.926;30.404;2024-02-14T02:25:40;102300.78;;;20.88;22.95
77737;BME280;66903;59.926;30.404;2024-02-14T02:31:10;102289.91;;;20.85;22.92
77737;BME280;66903;59.926;30.404;2024-02-14T02:36:24;102299.03;;;20.87;22.85
77737;BME280;66903;59.926;30.404;2024-02-14T02:41:54;102291.91;;;20.85;22.86
77737;BME280;66903;59.926;30.404;2024-02-14T02:47:39;102287.81;;;20.81;22.93
77737;BME280;66903;59.926;30.404;2024-02-14T02:53:10;102286.09;;;20.80;22.74
77737;BME280;66903;59.926;30.404;2024-02-14T02:58:41;102277.22;;;20.76;22.75
77737;BME280;66903;59.926;30.404;2024-02-14T03:03:52;102282.63;;;20.78;22.79
77737;BME280;66903;59.926;30.404;2024-02-14T03:09:22;102274.97;;;20.78;22.67
77737;BME280;66903;59.926;30.404;2024-02-14T03:14:53;102276.81;;;20.84;22.79
77737;BME280;66903;59.926;30.404;2024-02-14T03:20:17;102279.69;;;21.08;22.78
77737;BME280;66903;59.926;30.404;2024-02-14T03:25:30;102272.13;;;21.25;22.61
77737;BME280;66903;59.926;30.404;2024-02-14T03:30:46;102283.25;;;21.38;22.49
77737;BME280;66903;59.926;30.404;2024-02-14T03:35:58;102279.38;;;21.44;22.61
77737;BME280;66903;59.926;30.404;2024-02-14T03:41:08;102289.75;;;21.50;22.46
77737;BME280;66903;59.926;30.404;2024-02-14T03:46:19;102302.13;;;21.44;22.36
77737;BME280;66903;59.926;30.404;2024-02-14T03:51:31;102296.09;;;21.29;22.56
77737;BME280;66903;59.926;30.404;2024-02-14T03:56:42;102298.34;;;21.27;22.46
77737;BME280;66903;59.926;30.404;2024-02-14T04:01:53;102299.22;;;21.27;22.32
77737;BME280;66903;59.926;30.404;2024-02-14T04:07:04;102301.16;;;21.27;22.48
77737;BME280;66903;59.926;30.404;2024-02-14T04:12:15;102310.69;;;21.21;22.39
77737;BME280;66903;59.926;30.404;2024-02-14T04:17:25;102303.28;;;21.20;22.25
77737;BME280;66903;59.926;30.404;2024-02-14T04:22:36;102306.75;;;21.22;22.57
77737;BME280;66903;59.926;30.404;2024-02-14T04:27:47;102301.19;;;21.15;22.53
77737;BME280;66903;59.926;30.404;2024-02-14T04:32:58;102306.16;;;21.08;22.76
77737;BME280;66903;59.926;30.404;2024-02-14T04:38:08;102305.16;;;21.03;22.92
77737;BME280;66903;59.926;30.404;2024-02-14T04:43:19;102298.44;;;20.97;22.98
77737;BME280;66903;59.926;30.404;2024-02-14T04:48:30;102302.88;;;20.93;23.23
77737;BME280;66903;59.926;30.404;2024-02-14T04:53:40;102303.38;;;20.90;23.44
77737;BME280;66903;59.926;30.404;2024-02-14T04:58:53;102306.22;;;20.90;23.53
77737;BME280;66903;59.926;30.404;2024-02-14T05:04:03;102309.44;;;20.93;23.54
77737;BME280;66903;59.926;30.404;2024-02-14T05:09:15;102311.41;;;20.93;23.46
77737;BME280;66903;59.926;30.404;2024-02-14T05:14:26;102305.59;;;20.88;23.40
77737;BME280;66903;59.926;30.404;2024-02-14T05:19:42;102304.59;;;20.82;23.51
77737;BME280;66903;59.926;30.404;2024-02-14T05:24:53;102313.63;;;20.79;23.51
77737;BME280;66903;59.926;30.404;2024-02-14T05:30:04;102311.41;;;20.81;23.24
77737;BME280;66903;59.926;30.404;2024-02-14T05:35:19;102318.09;;;20.87;23.32
77737;BME280;66903;59.926;30.404;2024-02-14T05:40:30;102318.22;;;20.92;23.23
77737;BME280;66903;59.926;30.404;2024-02-14T05:45:41;102331.78;;;20.90;23.06
77737;BME280;66903;59.926;30.404;2024-02-14T05:50:52;102331.16;;;20.88;23.32
77737;BME280;66903;59.926;30.404;2024-02-14T05:56:02;102332.78;;;20.96;23.13
77737;BME280;66903;59.926;30.404;2024-02-14T06:01:13;102330.22;;;21.29;23.09
77737;BME280;66903;59.926;30.404;2024-02-14T06:06:24;102326.72;;;21.38;22.95
77737;BME280;66903;59.926;30.404;2024-02-14T06:11:37;102339.72;;;21.23;23.07
77737;BME280;66903;59.926;30.404;2024-02-14T06:16:51;102337.63;;;21.07;23.10
77737;BME280;66903;59.926;30.404;2024-02-14T06:22:02;102339.56;;;20.94;22.95
77737;BME280;66903;59.926;30.404;2024-02-14T06:27:13;102335.38;;;20.97;22.66
77737;BME280;66903;59.926;30.404;2024-02-14T06:32:25;102340.47;;;21.07;22.83
77737;BME280;66903;59.926;30.404;2024-02-14T06:37:35;102332.09;;;21.12;22.72
77737;BME280;66903;59.926;30.404;2024-02-14T06:42:46;102337.16;;;21.10;22.71
77737;BME280;66903;59.926;30.404;2024-02-14T06:47:58;102333.19;;;21.11;22.60
77737;BME280;66903;59.926;30.404;2024-02-14T06:53:09;102330.84;;;21.31;22.60
77737;BME280;66903;59.926;30.404;2024-02-14T06:58:20;102316.81;;;21.64;22.42
77737;BME280;66903;59.926;30.404;2024-02-14T07:03:31;102319.88;;;21.85;22.41
77737;BME280;66903;59.926;30.404;2024-02-14T07:08:42;102331.81;;;21.99;22.09
77737;BME280;66903;59.926;30.404;2024-02-14T07:13:55;102326.56;;;22.08;22.20
77737;BME280;66903;59.926;30.404;2024-02-14T07:19:07;102330.13;;;22.15;21.81
77737;BME280;66903;59.926;30.404;2024-02-14T07:24:18;102333.34;;;22.18;22.12
77737;BME280;66903;59.926;30.404;2024-02-14T07:29:29;102328.00;;;22.22;21.67
77737;BME280;66903;59.926;30.404;2024-02-14T07:34:39;102324.72;;;22.30;21.64
77737;BME280;66903;59.926;30.404;2024-02-14T07:39:51;102318.28;;;22.34;21.68
77737;BME280;66903;59.926;30.404;2024-02-14T07:45:01;102318.63;;;22.38;21.72
77737;BME280;66903;59.926;30.404;2024-02-14T07:50:16;102324.69;;;22.41;21.57
77737;BME280;66903;59.926;30.404;2024-02-14T07:55:27;102319.59;;;22.43;21.78
77737;BME280;66903;59.926;30.404;2024-02-14T08:00:38;102324.16;;;22.44;21.71
77737;BME280;66903;59.926;30.404;2024-02-14T08:05:48;102321.06;;;22.46;21.66
77737;BME280;66903;59.926;30.404;2024-02-14T08:10:59;102327.97;;;22.50;21.42
77737;BME280;66903;59.926;30.404;2024-02-14T08:16:10;102337.50;;;22.55;21.36
77737;BME280;66903;59.926;30.404;2024-02-14T08:21:21;102329.56;;;22.57;21.25
77737;BME280;66903;59.926;30.404;2024-02-14T08:26:32;102325.59;;;22.58;21.66
77737;BME280;66903;59.926;30.404;2024-02-14T08:31:42;102336.47;;;22.61;21.19
77737;BME280;66903;59.926;30.404;2024-02-14T08:36:53;102335.97;;;22.64;21.12
77737;BME280;66903;59.926;30.404;2024-02-14T08:42:04;102334.22;;;22.63;21.07
77737;BME280;66903;59.926;30.404;2024-02-14T08:47:18;102342.50;;;22.65;21.12
77737;BME280;66903;59.926;30.404;2024-02-14T08:52:29;102341.75;;;22.69;21.33
77737;BME280;66903;59.926;30.404;2024-02-14T08:57:40;102343.22;;;22.72;21.13
77737;BME280;66903;59.926;30.404;2024-02-14T09:02:52;102348.41;;;22.75;20.85
77737;BME280;66903;59.926;30.404;2024-02-14T09:08:03;102352.72;;;22.77;21.16
77737;BME280;66903;59.926;30.404;2024-02-14T09:13:14;102348.75;;;22.78;21.07
77737;BME280;66903;59.926;30.404;2024-02-14T09:18:25;102346.50;;;22.80;20.55
77737;BME280;66903;59.926;30.404;2024-02-14T09:23:36;102344.25;;;22.82;20.65
77737;BME280;66903;59.926;30.404;2024-02-14T09:28:50;102355.16;;;22.85;21.21
77737;BME280;66903;59.926;30.404;2024-02-14T09:34:01;102356.00;;;22.86;20.72
77737;BME280;66903;59.926;30.404;2024-02-14T09:39:12;102357.47;;;22.88;20.75
77737;BME280;66903;59.926;30.404;2024-02-14T09:44:28;102354.38;;;22.90;20.65
77737;BME280;66903;59.926;30.404;2024-02-14T09:49:42;102355.84;;;22.92;20.94
77737;BME280;66903;59.926;30.404;2024-02-14T09:54:53;102356.69;;;22.93;20.48
77737;BME280;66903;59.926;30.404;2024-02-14T10:00:05;102360.16;;;22.95;20.65
77737;BME280;66903;59.926;30.404;2024-02-14T10:05:17;102357.13;;;23.01;20.82
77737;BME280;66903;59.926;30.404;2024-02-14T10:10:27;102350.22;;;22.97;20.97
77737;BME280;66903;59.926;30.404;2024-02-14T10:15:38;102348.47;;;22.96;20.81
77737;BME280;66903;59.926;30.404;2024-02-14T10:20:56;102355.94;;;22.97;20.11
77737;BME280;66903;59.926;30.404;2024-02-14T10:26:07;102349.34;;;22.97;20.34
77737;BME280;66903;59.926;30.404;2024-02-14T10:31:17;102345.38;;;22.98;20.42
77737;BME280;66903;59.926;30.404;2024-02-14T10:36:29;102362.81;;;23.01;20.22
77737;BME280;66903;59.926;30.404;2024-02-14T10:41:42;102350.03;;;23.04;20.59
77737;BME280;66903;59.926;30.404;2024-02-14T10:46:52;102363.41;;;23.03;20.75
77737;BME280;66903;59.926;30.404;2024-02-14T10:52:06;102365.66;;;23.01;20.61
77737;BME280;66903;59.926;30.404;2024-02-14T10:57:19;102364.81;;;23.01;20.20
77737;BME280;66903;59.926;30.404;2024-02-14T11:02:32;102363.06;;;23.00;20.77
77737;BME280;66903;59.926;30.404;2024-02-14T11:07:46;102365.94;;;23.00;19.96
77737;BME280;66903;59.926;30.404;2024-02-14T11:12:57;102365.66;;;23.01;20.62
77737;BME280;66903;59.926;30.404;2024-02-14T11:18:08;102365.66;;;23.01;20.65
77737;BME280;66903;59.926;30.404;2024-02-14T11:23:23;102363.94;;;23.00;20.13
77737;BME280;66903;59.926;30.404;2024-02-14T11:28:37;102362.81;;;23.01;20.45
77737;BME280;66903;59.926;30.404;2024-02-14T11:33:49;102360.56;;;23.03;20.54
77737;BME280;66903;59.926;30.404;2024-02-14T11:39:04;102363.41;;;23.03;20.06
77737;BME280;66903;59.926;30.404;2024-02-14T11:44:21;102367.41;;;23.02;20.23
77737;BME280;66903;59.926;30.404;2024-02-14T11:49:35;102373.09;;;23.02;20.21
77737;BME280;66903;59.926;30.404;2024-02-14T11:54:47;102368.78;;;23.00;20.64
77737;BME280;66903;59.926;30.404;2024-02-14T12:00:00;102366.19;;;22.98;20.37
77737;BME280;66903;59.926;30.404;2024-02-14T12:05:14;102358.00;;;23.02;20.12
77737;BME280;66903;59.926;30.404;2024-02-14T12:10:25;102349.69;;;23.00;20.38
77737;BME280;66903;59.926;30.404;2024-02-14T12:15:45;102351.19;;;23.03;20.03
77737;BME280;66903;59.926;30.404;2024-02-14T12:21:06;102349.78;;;23.05;20.10
77737;BME280;66903;59.926;30.404;2024-02-14T12:26:20;102348.69;;;23.07;20.58
77737;BME280;66903;59.926;30.404;2024-02-14T12:31:31;102342.97;;;23.07;20.25
77737;BME280;66903;59.926;30.404;2024-02-14T12:36:42;102338.38;;;23.05;20.20
77737;BME280;66903;59.926;30.404;2024-02-14T12:41:53;102327.84;;;23.06;20.22
77737;BME280;66903;59.926;30.404;2024-02-14T12:47:04;102332.41;;;23.07;20.51
77737;BME280;66903;59.926;30.404;2024-02-14T12:52:15;102338.47;;;23.11;20.34
77737;BME280;66903;59.926;30.404;2024-02-14T12:57:26;102327.66;;;23.13;20.36
77737;BME280;66903;59.926;30.404;2024-02-14T13:02:37;102328.81;;;23.12;20.61
77737;BME280;66903;59.926;30.404;2024-02-14T13:07:50;102330.50;;;23.13;20.59
77737;BME280;66903;59.926;30.404;2024-02-14T13:13:01;102343.66;;;23.14;20.20
77737;BME280;66903;59.926;30.404;2024-02-14T13:18:12;102347.09;;;23.16;20.59
77737;BME280;66903;59.926;30.404;2024-02-14T13:23:22;102344.22;;;23.16;20.14
77737;BME280;66903;59.926;30.404;2024-02-14T13:28:35;102344.50;;;23.14;20.61
77737;BME280;66903;59.926;30.404;2024-02-14T13:33:45;102341.66;;;23.14;20.24
77737;BME280;66903;59.926;30.404;2024-02-14T13:38:56;102343.66;;;23.14;20.27
77737;BME280;66903;59.926;30.404;2024-02-14T13:44:07;102339.41;;;23.16;20.66
77737;BME280;66903;59.926;30.404;2024-02-14T13:49:19;102338.88;;;23.19;20.73
77737;BME280;66903;59.926;30.404;2024-02-14T13:54:33;102343.75;;;23.19;20.65
77737;BME280;66903;59.926;30.404;2024-02-14T13:59:44;102349.44;;;23.19;20.50
77737;BME280;66903;59.926;30.404;2024-02-14T14:04:55;102341.16;;;23.17;20.82
77737;BME280;66903;59.926;30.404;2024-02-14T14:10:06;102346.25;;;23.15;20.83
77737;BME280;66903;59.926;30.404;2024-02-14T14:15:17;102344.50;;;23.14;20.96
77737;BME280;66903;59.926;30.404;2024-02-14T14:20:28;102355.06;;;23.14;20.69
77737;BME280;66903;59.926;30.404;2024-02-14T14:25:39;102352.22;;;23.14;21.18
77737;BME280;66903;59.926;30.404;2024-02-14T14:30:54;102352.38;;;22.90;21.21
77737;BME280;66903;59.926;30.404;2024-02-14T14:36:05;102353.75;;;22.71;21.25
77737;BME280;66903;59.926;30.404;2024-02-14T14:41:17;102351.84;;;22.60;21.23
77737;BME280;66903;59.926;30.404;2024-02-14T14:46:28;102355.06;;;22.52;21.62
77737;BME280;66903;59.926;30.404;2024-02-14T14:51:41;102351.09;;;22.53;21.67
77737;BME280;66903;59.926;30.404;2024-02-14T14:56:53;102363.38;;;22.54;21.52
77737;BME280;66903;59.926;30.404;2024-02-14T15:02:05;102362.00;;;22.56;21.56
77737;BME280;66903;59.926;30.404;2024-02-14T15:07:16;102354.59;;;22.55;21.84
77737;BME280;66903;59.926;30.404;2024-02-14T15:12:31;102359.41;;;22.55;21.88
77737;BME280;66903;59.926;30.404;2024-02-14T15:17:42;102359.41;;;22.55;21.60
77737;BME280;66903;59.926;30.404;2024-02-14T15:22:52;102357.69;;;22.54;21.49
77737;BME280;66903;59.926;30.404;2024-02-14T15:28:10;102361.28;;;22.49;22.21
77737;BME280;66903;59.926;30.404;2024-02-14T15:33:32;102360.16;;;22.50;22.04
77737;BME280;66903;59.926;30.404;2024-02-14T15:38:43;102364.63;;;22.46;22.70
77737;BME280;66903;59.926;30.404;2024-02-14T15:43:53;102364.63;;;22.46;23.06
77737;BME280;66903;59.926;30.404;2024-02-14T15:49:04;102365.59;;;22.52;23.45
77737;BME280;66903;59.926;30.404;2024-02-14T15:54:15;102367.09;;;22.54;23.39
77737;BME280;66903;59.926;30.404;2024-02-14T15:59:26;102368.00;;;22.43;23.60
77737;BME280;66903;59.926;30.404;2024-02-14T16:04:38;102374.44;;;22.39;23.53
77737;BME280;66903;59.926;30.404;2024-02-14T16:09:49;102370.91;;;22.32;23.48
77737;BME280;66903;59.926;30.404;2024-02-14T16:15:00;102374.25;;;22.29;23.44
77737;BME280;66903;59.926;30.404;2024-02-14T16:20:12;102375.50;;;22.33;23.61
77737;BME280;66903;59.926;30.404;2024-02-14T16:25:23;102379.19;;;22.33;23.62
77737;BME280;66903;59.926;30.404;2024-02-14T16:30:37;102382.53;;;22.30;23.54
77737;BME280;66903;59.926;30.404;2024-02-14T16:35:47;102378.09;;;22.23;23.73
77737;BME280;66903;59.926;30.404;2024-02-14T16:40:58;102375.25;;;22.23;23.72
77737;BME280;66903;59.926;30.404;2024-02-14T16:46:09;102383.56;;;22.24;23.64
77737;BME280;66903;59.926;30.404;2024-02-14T16:51:19;102381.81;;;22.23;23.71
77737;BME280;66903;59.926;30.404;2024-02-14T16:56:31;102390.88;;;22.20;23.79
77737;BME280;66903;59.926;30.404;2024-02-14T17:01:43;102387.78;;;22.22;24.27
77737;BME280;66903;59.926;30.404;2024-02-14T17:06:55;102388.13;;;22.25;24.19
77737;BME280;66903;59.926;30.404;2024-02-14T17:12:06;102387.63;;;22.28;24.68
77737;BME280;66903;59.926;30.404;2024-02-14T17:17:18;102383.56;;;22.24;24.72
77737;BME280;66903;59.926;30.404;2024-02-14T17:22:29;102393.72;;;22.20;24.84
77737;BME280;66903;59.926;30.404;2024-02-14T17:27:40;102400.78;;;22.18;24.75
77737;BME280;66903;59.926;30.404;2024-02-14T17:32:51;102401.41;;;22.20;24.72
77737;BME280;66903;59.926;30.404;2024-02-14T17:38:01;102389.84;;;22.26;24.88
77737;BME280;66903;59.926;30.404;2024-02-14T17:43:13;102396.25;;;22.33;24.95
77737;BME280;66903;59.926;30.404;2024-02-14T17:48:24;102394.38;;;22.39;24.99
77737;BME280;66903;59.926;30.404;2024-02-14T17:53:35;102410.81;;;22.48;24.86
77737;BME280;66903;59.926;30.404;2024-02-14T17:58:46;102403.03;;;22.72;24.49
77737;BME280;66903;59.926;30.404;2024-02-14T18:03:57;102390.69;;;22.66;24.25
77737;BME280;66903;59.926;30.404;2024-02-14T18:09:08;102401.75;;;22.51;25.07
77737;BME280;66903;59.926;30.404;2024-02-14T18:14:20;102395.56;;;22.54;24.71
77737;BME280;66903;59.926;30.404;2024-02-14T18:24:41;102401.72;;;22.63;25.05
77737;BME280;66903;59.926;30.404;2024-02-14T18:29:52;102401.38;;;22.59;25.27
77737;BME280;66903;59.926;30.404;2024-02-14T18:35:03;102405.97;;;22.60;24.99
77737;BME280;66903;59.926;30.404;2024-02-14T18:40:14;102409.91;;;22.59;24.76
77737;BME280;66903;59.926;30.404;2024-02-14T18:45:25;102407.84;;;22.55;24.86
77737;BME280;66903;59.926;30.404;2024-02-14T18:50:36;102401.63;;;22.58;24.51
77737;BME280;66903;59.926;30.404;2024-02-14T18:55:46;102402.75;;;22.57;24.69
77737;BME280;66903;59.926;30.404;2024-02-14T19:00:58;102403.72;;;22.51;24.49
77737;BME280;66903;59.926;30.404;2024-02-14T19:06:08;102399.81;;;22.40;24.40
77737;BME280;66903;59.926;30.404;2024-02-14T19:11:19;102394.28;;;22.34;24.65
77737;BME280;66903;59.926;30.404;2024-02-14T19:16:30;102412.16;;;22.29;24.61
77737;BME280;66903;59.926;30.404;2024-02-14T19:21:42;102415.72;;;22.25;24.38
77737;BME280;66903;59.926;30.404;2024-02-14T19:26:53;102412.25;;;22.23;24.11
77737;BME280;66903;59.926;30.404;2024-02-14T19:32:04;102421.94;;;22.22;24.01
77737;BME280;66903;59.926;30.404;2024-02-14T19:37:15;102418.56;;;22.25;23.99
77737;BME280;66903;59.926;30.404;2024-02-14T19:42:26;102421.06;;;22.21;24.11
77737;BME280;66903;59.926;30.404;2024-02-14T19:47:39;102420.34;;;22.14;24.04
77737;BME280;66903;59.926;30.404;2024-02-14T19:52:50;102429.91;;;22.08;24.06
77737;BME280;66903;59.926;30.404;2024-02-14T19:58:01;102423.97;;;22.10;24.42
77737;BME280;66903;59.926;30.404;2024-02-14T20:03:12;102431.47;;;22.16;24.71
77737;BME280;66903;59.926;30.404;2024-02-14T20:08:22;102431.47;;;22.16;24.74
77737;BME280;66903;59.926;30.404;2024-02-14T20:13:37;102427.13;;;22.25;24.82
77737;BME280;66903;59.926;30.404;2024-02-14T20:18:47;102427.03;;;22.48;24.98
77737;BME280;66903;59.926;30.404;2024-02-14T20:23:58;102435.53;;;22.59;24.59
77737;BME280;66903;59.926;30.404;2024-02-14T20:29:09;102434.09;;;22.57;24.86
77737;BME280;66903;59.926;30.404;2024-02-14T20:34:21;102430.50;;;22.50;24.69
77737;BME280;66903;59.926;30.404;2024-02-14T20:39:32;102426.06;;;22.42;24.52
77737;BME280;66903;59.926;30.404;2024-02-14T20:44:43;102428.91;;;22.42;24.62
77737;BME280;66903;59.926;30.404;2024-02-14T20:49:54;102430.75;;;22.48;24.92
77737;BME280;66903;59.926;30.404;2024-02-14T20:55:07;102460.06;;;22.21;24.05
77737;BME280;66903;59.926;30.404;2024-02-14T21:00:18;102452.31;;;18.64;24.07
77737;BME280;66903;59.926;30.404;2024-02-14T21:05:29;102454.84;;;15.24;25.42
77737;BME280;66903;59.926;30.404;2024-02-14T21:10:40;102461.50;;;12.72;25.88
77737;BME280;66903;59.926;30.404;2024-02-14T21:15:51;102455.19;;;10.77;26.91
77737;BME280;66903;59.926;30.404;2024-02-14T21:21:02;102460.56;;;9.64;27.13
77737;BME280;66903;59.926;30.404;2024-02-14T21:26:13;102434.22;;;10.09;29.22
77737;BME280;66903;59.926;30.404;2024-02-14T21:31:24;102440.97;;;12.72;29.28
77737;BME280;66903;59.926;30.404;2024-02-14T21:36:35;102432.09;;;15.26;28.15
77737;BME280;66903;59.926;30.404;2024-02-14T21:41:47;102445.81;;;17.03;27.06
77737;BME280;66903;59.926;30.404;2024-02-14T21:46:58;102445.94;;;17.87;26.46
77737;BME280;66903;59.926;30.404;2024-02-14T21:52:09;102447.06;;;18.67;26.03
77737;BME280;66903;59.926;30.404;2024-02-14T21:57:21;102451.28;;;19.39;25.50
77737;BME280;66903;59.926;30.404;2024-02-14T22:02:33;102450.78;;;19.84;25.24
77737;BME280;66903;59.926;30.404;2024-02-14T22:07:44;102446.22;;;20.20;25.24
77737;BME280;66903;59.926;30.404;2024-02-14T22:12:55;102456.97;;;20.47;25.03
77737;BME280;66903;59.926;30.404;2024-02-14T22:18:06;102454.47;;;20.69;24.87
77737;BME280;66903;59.926;30.404;2024-02-14T22:23:17;102459.94;;;20.82;24.72
77737;BME280;66903;59.926;30.404;2024-02-14T22:28:29;102465.19;;;20.97;24.77
77737;BME280;66903;59.926;30.404;2024-02-14T22:33:44;102470.06;;;21.08;24.61
77737;BME280;66903;59.926;30.404;2024-02-14T22:38:55;102477.13;;;21.17;24.65
77737;BME280;66903;59.926;30.404;2024-02-14T22:44:06;102473.03;;;21.24;24.55
77737;BME280;66903;59.926;30.404;2024-02-14T22:49:17;102478.88;;;21.29;24.45
77737;BME280;66903;59.926;30.404;2024-02-14T22:54:28;102484.69;;;21.34;24.38
77737;BME280;66903;59.926;30.404;2024-02-14T22:59:39;102476.66;;;21.43;24.29
77737;BME280;66903;59.926;30.404;2024-02-14T23:04:51;102476.53;;;21.49;24.33
77737;BME280;66903;59.926;30.404;2024-02-14T23:10:02;102478.50;;;21.49;24.34
77737;BME280;66903;59.926;30.404;2024-02-14T23:15:15;102484.81;;;21.51;24.43
77737;BME280;66903;59.926;30.404;2024-02-14T23:20:28;102482.84;;;21.51;24.17
77737;BME280;66903;59.926;30.404;2024-02-14T23:25:38;102470.34;;;21.52;24.40
77737;BME280;66903;59.926;30.404;2024-02-14T23:30:51;102474.44;;;21.56;24.33
77737;BME280;66903;59.926;30.404;2024-02-14T23:36:02;102488.31;;;21.64;24.28
77737;BME280;66903;59.926;30.404;2024-02-14T23:41:13;102477.91;;;21.70;24.09
77737;BME280;66903;59.926;30.404;2024-02-14T23:46:24;102484.22;;;21.72;24.25
77737;BME280;66903;59.926;30.404;2024-02-14T23:51:36;102489.66;;;21.73;24.13
77737;BME280;66903;59.926;30.404;2024-02-14T23:56:47;102480.91;;;21.75;24.19
